Estación de C. Llollinco

Ultimos registro cada 15 minutos 69
Estación Fecha / Hora Temperatura Humedad Lluvia Velocidad Dirección Radiación Presion
69 C. Llollinco 08-05-2026 17:00 12,2 74,9 0 0,3 148 119 0
68 C. Llollinco 08-05-2026 16:45 12,1 71,8 0 0 176 153 0
67 C. Llollinco 08-05-2026 16:30 11,7 80,7 0 0,4 148 51 0
66 C. Llollinco 08-05-2026 16:15 12,8 70,9 0 0,6 130 219 0
65 C. Llollinco 08-05-2026 16:00 13,2 74,7 0 0,2 138 197 0
64 C. Llollinco 08-05-2026 15:45 12,8 70,2 0 0,2 79 270 0
63 C. Llollinco 08-05-2026 15:30 13,1 75,2 0 0,7 174 219 0
62 C. Llollinco 08-05-2026 15:15 13,2 71,9 0 1 153 421 0
61 C. Llollinco 08-05-2026 15:00 12,7 79 0 0,8 176 392 0
60 C. Llollinco 08-05-2026 14:45 11,6 83,7 0 0,5 154 298 0
59 C. Llollinco 08-05-2026 14:30 12 84 0 0,8 151 93 0
58 C. Llollinco 08-05-2026 14:15 12,6 78,7 0 0,1 184 351 0
57 C. Llollinco 08-05-2026 14:00 11,8 85,4 0 0 133 166 0
56 C. Llollinco 08-05-2026 13:45 11,8 89,6 0 0 0 124 0
55 C. Llollinco 08-05-2026 13:30 11,6 87 0 0,1 39 147 0
54 C. Llollinco 08-05-2026 13:15 11,4 85,7 0 0,1 42 189 0
53 C. Llollinco 08-05-2026 13:00 11,2 87,9 0 0,1 347 148 0
52 C. Llollinco 08-05-2026 12:45 10,8 88,9 0 0 183 228 0
51 C. Llollinco 08-05-2026 12:30 10,2 94,5 0 0 211 218 0
50 C. Llollinco 08-05-2026 12:15 9,7 96,6 0 0,2 206 130 0
49 C. Llollinco 08-05-2026 12:00 9,6 97,3 0 0 151 153 0
48 C. Llollinco 08-05-2026 11:45 9,3 97,7 0 0,3 162 117 0
47 C. Llollinco 08-05-2026 11:30 9,3 97,5 0 0,4 188 74 0
46 C. Llollinco 08-05-2026 11:15 9,3 97,9 0 0,3 167 64 0
45 C. Llollinco 08-05-2026 11:00 9,2 98 0 0,5 165 73 0
44 C. Llollinco 08-05-2026 10:45 9,1 98,2 0 0,1 158 69 0
43 C. Llollinco 08-05-2026 10:30 9 98 0 0,1 168 58 0
42 C. Llollinco 08-05-2026 10:15 9,1 97,8 0 0 0 58 0
41 C. Llollinco 08-05-2026 10:00 9 98 0 0 0 63 0
40 C. Llollinco 08-05-2026 09:45 8,8 98 0 0 169 62 0
39 C. Llollinco 08-05-2026 09:30 8,6 98,2 0 0 168 67 0
38 C. Llollinco 08-05-2026 09:15 8,4 98,3 0 0 0 48 0
37 C. Llollinco 08-05-2026 09:00 8,2 98,2 0 0 160 26 0
36 C. Llollinco 08-05-2026 08:45 8,2 98,1 0 0 151 15 0
35 C. Llollinco 08-05-2026 08:30 8,1 98,2 0,1 0,1 168 10 0
34 C. Llollinco 08-05-2026 08:15 8 98,1 0 0 138 9 0
33 C. Llollinco 08-05-2026 08:00 8 98,1 0 0,3 157 2 0
32 C. Llollinco 08-05-2026 07:45 8 98,1 0 0,1 156 1 0
31 C. Llollinco 08-05-2026 07:30 7,9 98 0 0,4 160 0 0
30 C. Llollinco 08-05-2026 07:15 8 97,9 0 0 202 0 0
29 C. Llollinco 08-05-2026 07:00 8 98 0,1 0 0 0 0
28 C. Llollinco 08-05-2026 06:45 7,9 97,8 0 0 0 0 0
27 C. Llollinco 08-05-2026 06:30 7,9 97,9 0,1 0 0 0 0
26 C. Llollinco 08-05-2026 06:15 7,9 97,7 0 0 162 0 0
25 C. Llollinco 08-05-2026 06:00 7,9 97,9 0,1 0 0 0 0
24 C. Llollinco 08-05-2026 05:45 7,8 97,7 0,3 0 0 0 0
23 C. Llollinco 08-05-2026 05:30 7,9 97,6 0,5 0 0 0 0
22 C. Llollinco 08-05-2026 05:15 7,9 97,5 0,2 0 0 0 0
21 C. Llollinco 08-05-2026 05:00 7,9 97,5 0,6 0,1 152 0 0
20 C. Llollinco 08-05-2026 04:45 7,9 97,2 0,2 0 0 0 0
19 C. Llollinco 08-05-2026 04:30 7,9 97,2 0,3 0 0 0 0
18 C. Llollinco 08-05-2026 04:15 7,8 97,2 0,2 0 0 0 0
17 C. Llollinco 08-05-2026 04:00 7,8 97 0,3 0 155 0 0
16 C. Llollinco 08-05-2026 03:45 7,7 96,9 0,1 0 0 0 0
15 C. Llollinco 08-05-2026 03:30 7,7 96,8 0,1 0,1 57 0 0
14 C. Llollinco 08-05-2026 03:15 7,7 96,5 0,4 0,3 38 0 0
13 C. Llollinco 08-05-2026 03:00 7,7 96,5 0,3 0 8 0 0
12 C. Llollinco 08-05-2026 02:45 7,8 96,5 0,4 0,1 29 0 0
11 C. Llollinco 08-05-2026 02:30 7,8 96,4 0,5 0,4 66 0 0
10 C. Llollinco 08-05-2026 02:15 7,9 96,3 0,6 0,5 46 0 0
9 C. Llollinco 08-05-2026 02:00 7,9 96,2 0,2 1 40 0 0
8 C. Llollinco 08-05-2026 01:45 8 96,1 0,1 0,9 46 0 0
7 C. Llollinco 08-05-2026 01:30 8 96 0,1 1,4 34 0 0
6 C. Llollinco 08-05-2026 01:15 8,1 96 0,2 1,5 29 0 0
5 C. Llollinco 08-05-2026 01:00 8,1 96,2 0,1 1,6 34 0 0
4 C. Llollinco 08-05-2026 00:45 8,1 96,2 0 1,7 29 0 0
3 C. Llollinco 08-05-2026 00:30 8,1 96,4 0,2 1,8 28 0 0
2 C. Llollinco 08-05-2026 00:15 8,1 96,5 0,2 1,9 32 0 0
1 C. Llollinco 08-05-2026 00:00 8,2 96,6 0,1 1,3 42 0 0